.
WxDataArchive / Data Records for 2013-08-13
2013-08-12 August 2013 2013-08-14

Data Records for Tuesday, 13 August 2013

Time	Temp	Chill	HIndex	Humid	Dewpt	 Wind 	HiWind	WindDir	Rain 	Barom 
-----	----	-----	------	-----	-----	------	------	-------	-----	----- 
00:00	70.1	70.1	70.1	84	65.0	0	1	270	0.00	29.837 
00:05	69.9	69.9	69.9	84	64.8	0	1	270	0.00	29.837 
00:10	69.8	69.8	69.8	84	64.7	0	1	270	0.00	29.837 
00:15	69.6	69.6	69.6	85	64.9	0	1	270	0.00	29.844 
00:20	69.4	69.4	69.4	86	65.0	0	1	270	0.00	29.844 
00:25	69.4	69.4	69.4	86	65.0	0	2	270	0.00	29.844 
00:30	69.3	69.3	69.3	86	64.9	0	2	270	0.00	29.846 
00:35	69.1	69.1	69.1	87	65.1	0	1	270	0.00	29.846 
00:40	68.9	68.9	68.9	87	64.9	0	1	270	0.00	29.846 
00:45	68.9	68.9	68.9	87	64.9	0	2	270	0.00	29.842 
00:50	68.8	68.8	68.8	88	65.1	0	1	270	0.00	29.842 
00:55	68.8	68.8	68.8	88	65.1	0	1	270	0.00	29.842 
01:00	68.6	68.6	68.6	88	64.9	0	2	270	0.00	29.838 
01:05	68.6	68.6	68.6	88	64.9	0	1	270	0.00	29.838 
01:10	68.4	68.4	68.4	88	64.7	0	1	270	0.00	29.838 
01:15	68.4	68.4	68.4	89	65.0	0	1	270	0.00	29.843 
01:20	68.3	68.3	68.3	89	64.9	0	1	270	0.00	29.843 
01:25	68.3	68.3	68.3	89	64.9	0	3	270	0.00	29.843 
01:30	68.3	68.3	68.3	89	64.9	0	2	270	0.00	29.844 
01:35	68.1	68.1	68.1	89	64.7	1	3	270	0.00	29.844 
01:40	68.1	68.1	68.1	89	64.7	0	2	270	0.00	29.844 
01:45	67.9	67.9	67.9	89	64.5	0	1	270	0.00	29.846 
01:50	67.8	67.8	67.8	90	64.8	0	1	270	0.00	29.846 
01:55	67.8	67.8	67.8	90	64.8	0	2	270	0.00	29.846 
02:00	67.6	67.6	67.6	90	64.6	0	2	270	0.00	29.841 
02:05	67.4	67.4	67.4	90	64.4	0	2	270	0.00	29.841 
02:10	67.4	67.4	67.4	90	64.4	0	1	270	0.00	29.841 
02:15	67.3	67.3	67.3	91	64.6	0	2	270	0.00	29.836 
02:20	67.1	67.1	67.1	91	64.4	0	1	270	0.00	29.836 
02:25	67.1	67.1	67.1	91	64.4	0	2	270	0.00	29.836 
02:30	67.1	67.1	67.1	92	64.7	1	7	270	0.00	29.837 
02:35	67.1	67.1	67.1	92	64.7	2	7	338	0.00	29.837 
02:40	66.9	66.9	66.9	92	64.5	3	9	338	0.00	29.837 
02:45	66.9	66.9	66.9	92	64.5	1	6	0	0.00	29.836 
02:50	66.8	66.8	66.8	92	64.4	1	4	292	0.00	29.836 
02:55	66.6	66.6	66.6	91	63.9	0	2	292	0.00	29.836 
03:00	66.6	66.6	66.6	91	63.9	0	1	292	0.00	29.835 
03:05	66.4	66.4	66.4	91	63.7	0	2	292	0.00	29.835 
03:10	66.3	66.3	66.3	91	63.6	0	1	292	0.00	29.835 
03:15	66.3	66.3	66.3	92	63.9	0	1	292	0.00	29.837 
03:20	66.4	66.4	66.4	92	64.0	0	2	292	0.00	29.837 
03:25	66.3	66.3	66.3	92	63.9	0	1	292	0.00	29.837 
03:30	66.3	66.3	66.3	92	63.9	0	0	---	0.00	29.837 
03:35	66.1	66.1	66.1	92	63.7	0	1	292	0.00	29.837 
03:40	66.1	66.1	66.1	92	63.7	0	1	292	0.00	29.837 
03:45	66.0	66.0	66.0	92	63.6	0	1	292	0.00	29.839 
03:50	66.0	66.0	66.0	92	63.6	0	1	292	0.00	29.839 
03:55	65.8	65.8	65.8	92	63.4	0	1	292	0.00	29.839 
04:00	65.8	65.8	65.8	92	63.4	0	1	292	0.00	29.844 
04:05	65.6	65.6	65.6	92	63.2	0	1	292	0.00	29.844 
04:10	65.6	65.6	65.6	92	63.2	0	1	292	0.00	29.844 
04:15	65.5	65.5	65.5	92	63.1	0	1	292	0.00	29.842 
04:20	65.5	65.5	65.5	92	63.1	0	1	292	0.00	29.842 
04:25	65.3	65.3	65.3	92	62.9	0	1	292	0.00	29.842 
04:30	65.2	65.2	65.2	92	62.8	0	2	292	0.00	29.842 
04:35	65.0	65.0	65.0	92	62.6	0	1	292	0.00	29.842 
04:40	65.0	65.0	65.0	92	62.6	0	1	292	0.00	29.842 
04:45	64.8	64.8	64.8	92	62.4	0	0	---	0.00	29.850 
04:50	64.8	64.8	64.8	92	62.4	0	1	292	0.00	29.850 
04:55	64.7	64.7	64.7	92	62.3	0	0	---	0.00	29.850 
05:00	64.7	64.7	64.7	93	62.6	0	1	292	0.00	29.850 
05:05	64.7	64.7	64.7	93	62.6	0	1	292	0.00	29.850 
05:10	64.7	64.7	64.7	93	62.6	0	1	292	0.00	29.850 
05:15	64.7	64.7	64.7	93	62.6	0	1	292	0.00	29.856 
05:20	64.5	64.5	64.5	93	62.4	0	1	292	0.00	29.856 
05:25	64.5	64.5	64.5	93	62.4	0	1	292	0.00	29.856 
05:30	64.3	64.3	64.3	93	62.2	0	1	292	0.00	29.860 
05:35	64.3	64.3	64.3	93	62.2	0	1	292	0.00	29.860 
05:40	64.2	64.2	64.2	93	62.1	0	2	292	0.00	29.860 
05:45	64.2	64.2	64.2	93	62.1	0	2	292	0.00	29.865 
05:50	64.0	64.0	64.0	93	61.9	0	1	292	0.00	29.865 
05:55	63.9	63.9	63.9	92	61.5	0	1	292	0.00	29.865 
06:00	63.9	63.9	63.9	92	61.5	0	1	292	0.00	29.869 
06:05	63.7	63.7	63.7	92	61.3	0	1	292	0.00	29.869 
06:10	63.5	63.5	63.5	92	61.1	0	1	292	0.00	29.869 
06:15	63.4	63.4	63.4	92	61.0	0	2	292	0.00	29.874 
06:20	63.2	63.2	63.2	92	60.8	0	4	292	0.00	29.874 
06:25	63.1	63.1	63.1	92	60.7	0	1	315	0.00	29.874 
06:30	63.1	63.1	63.1	92	60.7	0	1	315	0.00	29.886 
06:35	62.9	62.9	62.9	92	60.5	0	1	315	0.00	29.886 
06:40	62.9	62.9	62.9	92	60.5	0	2	315	0.00	29.886 
06:45	62.9	62.9	62.9	92	60.5	0	1	315	0.00	29.890 
06:50	62.7	62.7	62.7	91	60.0	0	3	315	0.00	29.890 
06:55	62.7	62.7	62.7	91	60.0	0	1	315	0.00	29.890 
07:00	62.6	62.6	62.6	91	59.9	0	1	315	0.00	29.892 
07:05	62.4	62.4	62.4	91	59.7	0	1	315	0.00	29.892 
07:10	62.3	62.3	62.3	91	59.6	0	1	315	0.00	29.892 
07:15	62.1	62.1	62.1	91	59.4	0	2	315	0.00	29.905 
07:20	62.1	62.1	62.1	91	59.4	0	1	315	0.00	29.905 
07:25	61.8	61.8	61.8	91	59.1	0	3	315	0.00	29.905 
07:30	61.8	61.8	61.8	91	59.1	0	1	315	0.00	29.906 
07:35	61.6	61.6	61.6	91	58.9	0	1	315	0.00	29.906 
07:40	61.6	61.6	61.6	91	58.9	0	2	315	0.00	29.906 
07:45	61.6	61.6	61.6	91	58.9	0	2	315	0.00	29.909 
07:50	61.6	61.6	61.6	91	58.9	1	4	315	0.00	29.909 
07:55	61.6	61.6	61.6	90	58.6	1	3	315	0.00	29.909 
08:00	61.8	61.8	61.8	90	58.8	1	4	315	0.00	29.910 
08:05	61.8	61.8	61.8	89	58.5	2	5	315	0.00	29.910 
08:10	61.8	61.8	61.8	89	58.5	1	2	338	0.00	29.910 
08:15	62.0	62.0	62.0	88	58.4	1	4	338	0.00	29.919 
08:20	62.0	62.0	62.0	88	58.4	1	4	338	0.00	29.919 
08:25	62.0	62.0	62.0	88	58.4	1	3	315	0.00	29.919 
08:30	62.1	62.1	62.1	88	58.5	0	2	315	0.00	29.938 
08:35	62.3	62.3	62.3	88	58.7	0	2	315	0.00	29.938 
08:40	62.4	62.4	62.4	87	58.5	1	2	315	0.00	29.938 
08:45	62.1	62.1	62.1	85	57.5	2	5	315	0.00	29.948 
08:50	62.1	62.1	62.1	85	57.5	2	4	315	0.00	29.948 
08:55	62.1	62.1	62.1	84	57.2	2	5	315	0.00	29.948 
09:00	62.1	62.1	62.1	84	57.2	2	5	315	0.00	29.942 
09:05	62.6	62.6	62.6	84	57.7	1	4	315	0.00	29.942 
09:10	63.1	63.1	63.1	84	58.2	0	2	315	0.00	29.942 
09:15	63.2	63.2	63.2	82	57.6	2	4	292	0.00	29.941 
09:20	62.6	62.6	62.6	81	56.7	2	5	315	0.00	29.941 
09:25	62.1	62.1	62.1	81	56.2	2	7	338	0.00	29.941 
09:30	62.0	62.0	62.0	81	56.1	1	5	338	0.00	29.941 
09:35	61.8	61.8	61.8	82	56.2	1	3	315	0.00	29.941 
09:40	62.0	62.0	62.0	81	56.1	1	4	315	0.00	29.941 
09:45	62.0	62.0	62.0	81	56.1	2	5	315	0.00	29.952 
09:50	62.4	62.4	62.4	81	56.5	1	4	315	0.00	29.952 
09:55	62.7	62.7	62.7	80	56.4	1	3	338	0.00	29.952 
10:00	63.1	63.1	63.1	80	56.8	0	2	338	0.00	29.955 
10:05	63.2	63.2	63.2	79	56.6	1	3	338	0.00	29.955 
10:10	63.4	63.4	63.4	78	56.4	1	5	338	0.00	29.955 
10:15	63.5	63.5	63.5	79	56.9	0	2	338	0.00	29.965 
10:20	63.7	63.7	63.7	77	56.3	2	3	338	0.00	29.965 
10:25	64.0	64.0	64.0	77	56.6	1	5	315	0.00	29.965 
10:30	64.3	64.3	64.3	77	56.9	1	5	315	0.00	29.969 
10:35	64.7	64.7	64.7	75	56.6	1	5	315	0.00	29.969 
10:40	64.7	64.7	64.7	74	56.2	2	4	338	0.00	29.969 
10:45	64.8	64.8	64.8	76	57.0	1	3	22	0.00	29.969 
10:50	65.3	65.3	65.3	72	56.0	1	4	45	0.00	29.969 
10:55	65.6	65.6	65.6	71	55.9	1	4	45	0.00	29.969 
11:00	66.0	66.0	66.0	69	55.5	1	4	45	0.00	29.972 
11:05	66.3	66.3	66.3	69	55.8	1	4	338	0.00	29.972 
11:10	66.0	66.0	66.0	66	54.3	2	5	338	0.00	29.972 
11:15	65.8	65.8	65.8	67	54.5	2	4	292	0.00	29.974 
11:20	66.0	66.0	66.0	65	53.9	2	4	292	0.00	29.974 
11:25	66.0	66.0	66.0	66	54.3	1	3	315	0.00	29.974 
11:30	66.3	66.3	66.3	67	55.0	1	5	315	0.00	29.978 
11:35	66.6	66.6	66.6	64	54.0	2	4	315	0.00	29.978 
11:40	66.3	66.3	66.3	63	53.3	2	5	338	0.00	29.978 
11:45	66.6	66.6	66.6	65	54.5	1	4	338	0.00	29.984 
11:50	66.4	66.4	66.4	62	53.0	2	6	315	0.00	29.984 
11:55	66.1	66.1	66.1	62	52.7	2	4	0	0.00	29.984 
12:00	66.3	66.3	66.3	63	53.3	1	4	0	0.00	29.987 
12:05	66.6	66.6	66.6	64	54.0	1	3	270	0.00	29.987 
12:10	66.6	66.6	66.6	60	52.3	2	6	338	0.00	29.987 
12:15	66.8	66.8	66.8	60	52.5	2	6	338	0.00	29.985 
12:20	66.8	66.8	66.8	61	52.9	2	5	338	0.00	29.985 
12:25	66.9	66.9	66.9	61	53.0	1	5	338	0.00	29.985 
12:30	67.1	67.1	67.1	62	53.6	1	4	338	0.00	29.988 
12:35	67.6	67.6	67.6	61	53.7	2	5	270	0.00	29.988 
12:40	68.1	68.1	68.1	62	54.6	1	5	315	0.00	29.988 
12:45	68.1	68.1	68.1	58	52.8	2	4	270	0.00	29.989 
12:50	67.9	67.9	67.9	57	52.1	2	4	315	0.00	29.989 
12:55	68.1	68.1	68.1	55	51.3	2	4	315	0.00	29.989 
13:00	67.6	67.6	67.6	54	50.4	3	6	338	0.00	29.989 
13:05	67.6	67.6	67.6	55	50.8	2	6	315	0.00	29.989 
13:10	68.3	68.3	68.3	53	50.5	1	3	315	0.00	29.989 
13:15	68.4	68.4	68.4	52	50.1	2	4	315	0.00	29.992 
13:20	68.3	68.3	68.3	50	48.9	2	5	315	0.00	29.992 
13:25	68.3	68.3	68.3	51	49.5	2	4	292	0.00	29.992 
13:30	68.6	68.6	68.6	51	49.7	1	4	315	0.00	29.991 
13:35	69.4	69.4	69.4	52	51.0	0	3	0	0.00	29.991 
13:40	69.6	69.6	69.6	49	49.6	2	6	315	0.00	29.991 
13:45	69.1	69.1	69.1	51	50.2	2	4	315	0.00	29.992 
13:50	68.9	68.9	68.9	49	48.9	2	6	315	0.00	29.992 
13:55	68.8	68.8	68.8	49	48.8	1	5	338	0.00	29.992 
14:00	68.9	68.9	68.9	49	48.9	2	6	315	0.00	29.992 
14:05	69.3	69.3	69.3	50	49.8	1	5	0	0.00	29.992 
14:10	69.6	69.6	69.6	50	50.1	2	6	292	0.00	29.992 
14:15	69.6	69.6	69.6	46	47.9	2	5	315	0.00	30.001 
14:20	69.3	69.3	69.3	50	49.8	1	5	315	0.00	30.001 
14:25	69.4	69.4	69.4	50	49.9	1	4	315	0.00	30.001 
14:30	69.6	69.6	69.6	50	50.1	1	5	338	0.00	29.998 
14:35	69.4	69.4	69.4	49	49.4	2	5	338	0.00	29.998 
14:40	69.3	69.3	69.3	46	47.6	3	6	315	0.00	29.998 
14:45	69.4	69.4	69.4	49	49.4	2	5	292	0.00	29.998 
14:50	69.6	69.6	69.6	49	49.6	2	6	338	0.00	29.998 
14:55	69.6	69.6	69.6	47	48.5	2	5	338	0.00	29.998 
15:00	70.1	70.1	70.1	47	48.9	2	4	338	0.00	30.003 
15:05	69.9	69.9	69.9	46	48.2	2	5	292	0.00	30.003 
15:10	70.3	70.3	70.3	46	48.5	2	5	292	0.00	30.003 
15:15	70.1	70.1	70.1	46	48.3	3	7	315	0.00	30.005 
15:20	70.1	70.1	70.1	46	48.3	2	5	270	0.00	30.005 
15:25	69.9	69.9	69.9	46	48.2	2	4	315	0.00	30.005 
15:30	69.9	69.9	69.9	45	47.6	2	6	315	0.00	30.004 
15:35	69.6	69.6	69.6	44	46.7	3	9	338	0.00	30.004 
15:40	69.8	69.8	69.8	45	47.5	2	5	315	0.00	30.004 
15:45	69.8	69.8	69.8	46	48.1	1	6	315	0.00	30.002 
15:50	69.1	69.1	69.1	45	46.9	3	5	315	0.00	30.002 
15:55	69.6	69.6	69.6	47	48.5	2	6	338	0.00	30.002 
16:00	70.1	70.1	70.1	47	48.9	1	4	315	0.00	30.004 
16:05	69.4	69.4	69.4	46	47.7	2	5	338	0.00	30.004 
16:10	68.8	68.8	68.8	46	47.2	2	5	22	0.00	30.004 
16:15	68.9	68.9	68.9	47	47.8	1	3	315	0.00	29.999 
16:20	69.6	69.6	69.6	46	47.9	2	6	315	0.00	29.999 
16:25	70.1	70.1	70.1	47	48.9	1	4	338	0.00	29.999 
16:30	69.8	69.8	69.8	42	45.7	2	5	338	0.00	29.999 
16:35	69.8	69.8	69.8	45	47.5	2	6	338	0.00	29.999 
16:40	69.1	69.1	69.1	44	46.3	3	6	338	0.00	29.999 
16:45	68.4	68.4	68.4	46	46.8	2	6	338	0.00	30.004 
16:50	68.4	68.4	68.4	45	46.2	2	9	315	0.00	30.004 
16:55	68.6	68.6	68.6	46	47.0	2	7	315	0.00	30.004 
17:00	69.1	69.1	69.1	46	47.4	3	6	338	0.00	30.006 
17:05	69.3	69.3	69.3	44	46.4	3	5	315	0.00	30.006 
17:10	69.4	69.4	69.4	43	45.9	2	5	315	0.00	30.006 
17:15	69.1	69.1	69.1	45	46.9	3	5	315	0.00	30.009 
17:20	69.6	69.6	69.6	48	49.0	1	5	315	0.00	30.009 
17:25	69.3	69.3	69.3	44	46.4	3	7	315	0.00	30.009 
17:30	69.4	69.4	69.4	45	47.1	1	4	315	0.00	30.010 
17:35	69.6	69.6	69.6	46	47.9	2	5	338	0.00	30.010 
17:40	69.3	69.3	69.3	45	47.0	3	6	315	0.00	30.010 
17:45	69.4	69.4	69.4	45	47.1	2	6	315	0.00	30.009 
17:50	69.1	69.1	69.1	45	46.9	2	5	338	0.00	30.009 
17:55	68.9	68.9	68.9	46	47.3	3	7	292	0.00	30.009 
18:00	67.8	67.8	67.8	48	47.4	2	9	315	0.00	30.011 
18:05	67.6	67.6	67.6	48	47.2	1	5	315	0.00	30.011 
18:10	67.9	67.9	67.9	48	47.5	1	4	315	0.00	30.011 
18:15	68.3	68.3	68.3	49	48.4	1	5	315	0.00	30.015 
18:20	68.1	68.1	68.1	48	47.7	2	6	315	0.00	30.015 
18:25	67.8	67.8	67.8	48	47.4	2	7	338	0.00	30.015 
18:30	67.4	67.4	67.4	47	46.5	2	7	338	0.00	30.017 
18:35	66.6	66.6	66.6	48	46.3	2	7	338	0.00	30.017 
18:40	66.4	66.4	66.4	48	46.1	2	9	270	0.00	30.017 
18:45	66.3	66.3	66.3	49	46.6	1	5	315	0.00	30.014 
18:50	66.4	66.4	66.4	49	46.7	1	5	315	0.00	30.014 
18:55	66.6	66.6	66.6	49	46.8	3	6	315	0.00	30.014 
19:00	66.4	66.4	66.4	50	47.2	1	5	315	0.00	30.014 
19:05	66.0	66.0	66.0	51	47.3	1	5	315	0.00	30.014 
19:10	66.0	66.0	66.0	52	47.9	1	4	315	0.00	30.014 
19:15	65.8	65.8	65.8	51	47.2	1	4	315	0.00	30.014 
19:20	65.8	65.8	65.8	52	47.7	0	1	315	0.00	30.014 
19:25	65.8	65.8	65.8	52	47.7	0	2	315	0.00	30.014 
19:30	65.8	65.8	65.8	54	48.7	0	4	315	0.00	30.014 
19:35	65.8	65.8	65.8	51	47.2	0	3	315	0.00	30.014 
19:40	65.6	65.6	65.6	49	45.9	1	5	315	0.00	30.014 
19:45	65.3	65.3	65.3	48	45.1	1	5	338	0.00	30.017 
19:50	65.2	65.2	65.2	49	45.6	0	2	338	0.00	30.017 
19:55	65.0	65.0	65.0	50	45.9	0	2	338	0.00	30.017 
20:00	64.8	64.8	64.8	50	45.7	0	1	338	0.00	30.019 
20:05	64.5	64.5	64.5	51	46.0	0	2	338	0.00	30.019 
20:10	64.3	64.3	64.3	52	46.3	0	1	338	0.00	30.019 
20:15	64.2	64.2	64.2	51	45.7	1	3	338	0.00	30.018 
20:20	64.0	64.0	64.0	52	46.0	1	3	338	0.00	30.018 
20:25	63.7	63.7	63.7	52	45.7	0	2	338	0.00	30.018 
20:30	63.4	63.4	63.4	53	46.0	0	2	338	0.00	30.021 
20:35	63.2	63.2	63.2	54	46.3	0	2	338	0.00	30.021 
20:40	62.9	62.9	62.9	54	46.0	0	0	---	0.00	30.021 
20:45	62.4	62.4	62.4	55	46.0	0	1	338	0.00	30.026 
20:50	62.1	62.1	62.1	57	46.7	0	0	---	0.00	30.026 
20:55	61.8	61.8	61.8	58	46.9	0	1	338	0.00	30.026 
21:00	61.5	61.5	61.5	58	46.6	0	1	338	0.00	30.031 
21:05	61.3	61.3	61.3	60	47.3	0	1	338	0.00	30.031 
21:10	61.3	61.3	61.3	61	47.7	0	1	338	0.00	30.031 
21:15	61.3	61.3	61.3	62	48.2	0	1	338	0.00	30.032 
21:20	61.2	61.2	61.2	63	48.5	0	2	338	0.00	30.032 
21:25	61.0	61.0	61.0	64	48.7	0	1	338	0.00	30.032 
21:30	60.9	60.9	60.9	64	48.6	0	1	338	0.00	30.037 
21:35	60.9	60.9	60.9	65	49.1	0	1	338	0.00	30.037 
21:40	60.9	60.9	60.9	65	49.1	0	1	338	0.00	30.037 
21:45	61.0	61.0	61.0	65	49.1	0	1	338	0.00	30.044 
21:50	61.0	61.0	61.0	66	49.6	0	1	338	0.00	30.044 
21:55	60.9	60.9	60.9	66	49.5	0	1	338	0.00	30.044 
22:00	60.9	60.9	60.9	66	49.5	0	2	338	0.00	30.046 
22:05	60.9	60.9	60.9	66	49.5	1	3	338	0.00	30.046 
22:10	60.9	60.9	60.9	66	49.5	0	3	338	0.00	30.046 
22:15	60.7	60.7	60.7	67	49.7	1	3	315	0.00	30.047 
22:20	60.5	60.5	60.5	67	49.5	0	1	315	0.00	30.047 
22:25	60.4	60.4	60.4	68	49.8	0	1	315	0.00	30.047 
22:30	60.2	60.2	60.2	69	50.0	0	0	---	0.00	30.051 
22:35	59.9	59.9	59.9	69	49.7	0	1	315	0.00	30.051 
22:40	59.8	59.8	59.8	70	50.0	0	1	315	0.00	30.051 
22:45	59.6	59.6	59.6	71	50.2	0	0	---	0.00	30.054 
22:50	59.3	59.3	59.3	72	50.3	0	1	315	0.00	30.054 
22:55	59.2	59.2	59.2	72	50.2	0	0	---	0.00	30.054 
23:00	59.0	59.0	59.0	73	50.4	0	0	---	0.00	30.059 
23:05	58.9	58.9	58.9	73	50.3	0	1	315	0.00	30.059 
23:10	58.7	58.7	58.7	73	50.1	0	0	---	0.00	30.059 
23:15	58.7	58.7	58.7	74	50.4	0	1	315	0.00	30.061 
23:20	58.6	58.6	58.6	74	50.3	0	1	315	0.00	30.061 
23:25	58.4	58.4	58.4	74	50.1	0	0	---	0.00	30.061 
23:30	58.3	58.3	58.3	74	50.0	0	1	315	0.00	30.064 
23:35	58.1	58.1	58.1	74	49.9	0	1	315	0.00	30.064 
23:40	58.0	58.0	58.0	75	50.1	0	1	315	0.00	30.064 
23:45	58.0	58.0	58.0	75	50.1	0	1	315	0.00	30.068 
23:50	57.6	57.6	57.6	75	49.7	0	1	315	0.00	30.068 
23:55	57.5	57.5	57.5	76	50.0	0	1	315	0.00	30.068 

CoCoRaHS
IN-AL-39
A2 Web Hosting
Creative Commons License
GoDaddy
search engine by freefind advanced

loaded 2018-11-15 06:12:46 • last modified 2010-11-18 10:43:29
Privacy PolicyDisclaimer
• wx.awcolley.com is powered by PmWiki v.2002016 •
• all content (unless otherwise noted) © 2018 A W Colley